Airfield :
LOGIN :

Register | Disclaimer

   EN    FR    IT 

 










Legend :    VFR   Marginal VFR   IFR   Intensive IFR   Very Intensive IFR
Visi :
Ceiling :
>= 8 km
>= 3000ft
5 to 8 km
1000 to 3000 ft
1500m to 5 km
500 to 1000 ft
800 to 1500m
200 to 500 ft
< 800m
< 200 ft
Symbols :   Thunderstorms  Fog  Heavy snow  Heavy precipitations  Wind > 20 kt
SIGMETs :     Misc.  Thunderstorms  Icing  Turbulence  Mountain Waves  Volcanic Ashes







- Airport Elevation : 364 ft
- Download approach charts


LFAQ - Albert Bray

CURRENT METAR :
  • 211700Z AUTO 21016KT CAVOK 13/08 Q1011 TEMPO 4000 SHRA BKN030CB BECMG 22020G30KT

EXPIRED METARs :
  • 211630Z AUTO 23018KT CAVOK 14/07 Q1010 TEMPO 4000 SHRA BKN030CB BECMG 22020G30KT
  • 211600Z AUTO 22021KT CAVOK 15/06 Q1010 TEMPO 4000 SHRA BKN030CB BECMG 22020G30KT
  • 211530Z AUTO 23020KT CAVOK 16/06 Q1010 TEMPO 4000 SHRA BKN030CB BECMG 22020G30KT
  • 211500Z AUTO 23017KT 9999 BKN049 BKN056 BKN072 16/07 Q1010 TEMPO 4000 SHRA BKN030CB BECMG 22020G30KT
  • 211430Z AUTO 23018KT CAVOK 17/07 Q1010 TEMPO 4000 SHRA BKN030CB BECMG 22020G30KT

TAF TAF LFAQ
Valid from the 21 at 15:00 until the 22 at 00:00 UTC


211400Z 2115/2124 22020G30KT 9999 BKN020
TEMPO 2115/2120 4000 SHRA BKN030CB
No reported NOTAMs for that airfield.
1 SIGMET reported for the Paris FIR (LFFF) :
 
Severe turbulence
LFFF SIGMET 5 VALID 211500/211900 LFPW
LFFF PARIS FIR/UIR SEV TURB FCST WI N4715 W00015 - N5000 W00015 - N5115 E00200 - N5030 E00315 SFC/FL060 STNR NC=



MET'MAP, your aeronautical weather chart ! - Copyright ORBIFLY December 2007 - Disclaimer

ORBIFLY MET'MAP TEAM :

Programming & Development : Alexandra Zaïnal
Concept & Development : Baudouin d'Aumeries
Co-Development & Prog : Marc-Olivier Méhu
Technical & hardware support : Manuel Goepfert

Contact : metmap@orbifly.com




SOURCES & CREDITS :

   NOAA